createdAt,value
2022-12-24T00:01:23.095Z,0.90
2022-12-24T00:03:50.981Z,1.10
2022-12-24T00:06:19.545Z,1.00
2022-12-24T00:08:47.032Z,0.90
2022-12-24T00:11:14.503Z,0.90
2022-12-24T00:13:41.969Z,0.90
2022-12-24T00:16:10.807Z,1.00
2022-12-24T00:18:45.168Z,0.87
2022-12-24T00:21:13.595Z,0.80
2022-12-24T00:23:41.356Z,0.80
2022-12-24T00:26:08.822Z,0.90
2022-12-24T00:28:36.263Z,0.63
2022-12-24T00:31:08.313Z,0.90
2022-12-24T00:33:37.145Z,0.93
2022-12-24T00:36:05.241Z,0.90
2022-12-24T00:38:32.690Z,0.80
2022-12-24T00:41:01.087Z,0.90
2022-12-24T00:43:28.908Z,0.70
2022-12-24T00:45:56.617Z,0.90
2022-12-24T00:48:24.151Z,0.80
2022-12-24T00:50:53.163Z,1.00
2022-12-24T00:53:20.674Z,0.93
2022-12-24T00:55:48.107Z,0.80
2022-12-24T00:58:15.526Z,0.87
2022-12-24T01:00:43.006Z,1.00
2022-12-24T01:03:10.578Z,0.80
2022-12-24T01:05:37.163Z,0.80
2022-12-24T01:08:06.277Z,1.37
2022-12-24T01:10:33.725Z,0.83
2022-12-24T01:13:02.721Z,0.80
2022-12-24T01:15:30.291Z,0.70
2022-12-24T01:17:58.322Z,0.80
2022-12-24T01:20:27.033Z,0.90
2022-12-24T01:22:54.449Z,1.00
2022-12-24T01:25:23.287Z,0.80
2022-12-24T01:27:50.745Z,0.70
2022-12-24T01:30:18.213Z,0.70
2022-12-24T01:32:45.713Z,0.80
2022-12-24T01:35:13.152Z,0.90
2022-12-24T01:37:40.655Z,0.60
2022-12-24T01:40:26.399Z,1.10
2022-12-24T01:43:12.817Z,0.73
2022-12-24T01:45:47.781Z,0.97
2022-12-24T01:48:18.929Z,0.90
2022-12-24T01:50:46.507Z,0.90
2022-12-24T01:53:14.993Z,0.70
2022-12-24T01:55:42.760Z,1.00
2022-12-24T01:58:11.917Z,0.90
2022-12-24T02:00:39.463Z,1.00
2022-12-24T02:03:07.391Z,1.00
2022-12-24T02:05:36.753Z,0.90
2022-12-24T02:08:05.125Z,0.93
2022-12-24T02:10:32.560Z,0.80
2022-12-24T02:13:01.250Z,0.80
2022-12-24T02:15:33.001Z,0.83
2022-12-24T02:18:02.553Z,0.90
2022-12-24T02:20:50.754Z,0.90
2022-12-24T02:23:28.805Z,0.90
2022-12-24T02:26:04.400Z,0.70
2022-12-24T02:28:42.673Z,0.80
2022-12-24T02:31:14.854Z,0.80
2022-12-24T02:33:46.047Z,0.80
2022-12-24T02:36:19.534Z,0.60
2022-12-24T02:38:48.288Z,0.80
2022-12-24T02:41:17.480Z,0.80
2022-12-24T02:43:46.080Z,0.77
2022-12-24T02:46:16.860Z,0.70
2022-12-24T02:48:45.171Z,1.03
2022-12-24T02:51:12.798Z,0.70
2022-12-24T02:53:40.814Z,0.83
2022-12-24T02:56:29.114Z,0.93
2022-12-24T02:59:10.619Z,0.80
2022-12-24T03:01:44.936Z,1.23
2022-12-24T03:04:16.857Z,0.80
2022-12-24T03:06:45.904Z,0.90
2022-12-24T03:09:16.609Z,0.67
2022-12-24T03:11:45.773Z,0.90
2022-12-24T03:14:13.550Z,0.80
2022-12-24T03:16:43.389Z,0.83
2022-12-24T03:19:10.979Z,0.97
2022-12-24T03:21:42.446Z,0.90
2022-12-24T03:24:10.904Z,0.90
2022-12-24T03:26:39.429Z,0.90
2022-12-24T03:29:07.492Z,0.80
2022-12-24T03:31:47.427Z,0.83
2022-12-24T03:34:15.320Z,1.10
2022-12-24T03:36:43.236Z,1.00
2022-12-24T03:39:11.176Z,0.90
2022-12-24T03:41:39.337Z,0.80
2022-12-24T03:44:06.750Z,0.97
2022-12-24T03:46:34.305Z,0.80
2022-12-24T03:49:03.116Z,0.70
2022-12-24T03:51:30.618Z,0.93
2022-12-24T03:53:58.532Z,0.53
2022-12-24T03:56:26.390Z,0.73
2022-12-24T03:58:54.446Z,0.63
2022-12-24T04:01:21.980Z,0.60
2022-12-24T04:03:49.633Z,0.70
2022-12-24T04:06:18.883Z,0.80
2022-12-24T04:08:46.342Z,0.60
2022-12-24T04:11:14.853Z,0.50
2022-12-24T04:13:42.388Z,0.73
2022-12-24T04:16:10.658Z,0.70
2022-12-24T04:18:38.436Z,0.80
2022-12-24T04:21:06.688Z,0.70
2022-12-24T04:23:36.695Z,0.60
2022-12-24T04:26:04.950Z,0.60
2022-12-24T04:28:33.137Z,0.60
2022-12-24T04:31:00.733Z,0.60
2022-12-24T04:33:28.258Z,0.70
2022-12-24T04:35:55.944Z,0.60
2022-12-24T04:38:23.423Z,0.70
2022-12-24T04:40:58.396Z,0.60
2022-12-24T04:43:25.888Z,0.70
2022-12-24T04:45:53.392Z,0.60
2022-12-24T04:48:20.894Z,0.70
2022-12-24T04:50:48.348Z,0.60
2022-12-24T04:53:15.918Z,0.70
2022-12-24T04:55:45.072Z,0.70
2022-12-24T04:58:14.274Z,0.57
2022-12-24T05:00:42.309Z,0.80
2022-12-24T05:03:09.800Z,0.60
2022-12-24T05:05:37.305Z,0.60
2022-12-24T05:08:04.899Z,0.80
2022-12-24T05:10:32.397Z,0.70
2022-12-24T05:12:59.917Z,0.70
2022-12-24T05:15:28.699Z,0.90
2022-12-24T05:17:56.178Z,0.70
2022-12-24T05:20:24.780Z,1.00
2022-12-24T05:23:09.806Z,0.90
2022-12-24T05:25:57.214Z,0.90
2022-12-24T05:28:24.866Z,1.00
2022-12-24T05:30:53.729Z,1.00
2022-12-24T05:33:21.201Z,0.60
2022-12-24T05:35:48.601Z,0.80
2022-12-24T05:38:16.021Z,0.70
2022-12-24T05:40:43.457Z,0.90
2022-12-24T05:43:10.921Z,0.80
2022-12-24T05:45:38.354Z,0.87
2022-12-24T05:48:08.022Z,1.03
2022-12-24T05:50:35.518Z,1.10
2022-12-24T05:53:05.968Z,1.10
2022-12-24T05:55:33.593Z,0.90
2022-12-24T05:58:01.048Z,0.97
2022-12-24T06:00:28.605Z,1.10
2022-12-24T06:02:56.069Z,1.00
2022-12-24T06:05:24.944Z,0.93
2022-12-24T06:07:52.365Z,1.03
2022-12-24T06:10:19.806Z,1.00
2022-12-24T06:12:47.263Z,1.03
2022-12-24T06:15:20.299Z,1.00
2022-12-24T06:17:51.019Z,1.00
2022-12-24T06:20:18.507Z,1.40
2022-12-24T06:22:47.310Z,1.10
2022-12-24T06:25:14.708Z,1.10
2022-12-24T06:27:42.134Z,1.20
2022-12-24T06:30:10.174Z,1.17
2022-12-24T06:32:37.638Z,1.20
2022-12-24T06:35:05.852Z,1.43
2022-12-24T06:37:33.302Z,1.10
2022-12-24T06:40:02.093Z,1.40
2022-12-24T06:42:29.567Z,1.90
2022-12-24T06:44:59.829Z,2.10
2022-12-24T06:47:31.294Z,1.67
2022-12-24T06:49:58.741Z,1.43
2022-12-24T06:52:26.206Z,1.47
2022-12-24T06:54:53.635Z,1.30
2022-12-24T06:57:22.443Z,1.30
2022-12-24T06:59:49.850Z,1.00
2022-12-24T07:02:17.369Z,1.10
2022-12-24T07:04:44.884Z,0.90
2022-12-24T07:07:12.366Z,1.10
2022-12-24T07:09:39.817Z,1.00
2022-12-24T07:12:07.392Z,1.03
2022-12-24T07:14:36.206Z,1.00
2022-12-24T07:17:03.767Z,1.00
2022-12-24T07:19:31.446Z,1.10
2022-12-24T07:21:58.954Z,0.90
2022-12-24T07:24:26.453Z,1.00
2022-12-24T07:26:53.878Z,1.00
2022-12-24T07:29:21.548Z,1.13
2022-12-24T07:31:50.376Z,0.90
2022-12-24T07:34:17.886Z,1.00
2022-12-24T07:36:45.409Z,1.83
2022-12-24T07:39:12.871Z,0.90
2022-12-24T07:41:41.990Z,0.80
2022-12-24T07:44:09.827Z,1.03
2022-12-24T07:46:37.320Z,0.80
2022-12-24T07:49:06.154Z,1.07
2022-12-24T07:51:33.699Z,1.00
2022-12-24T07:54:01.632Z,0.90
2022-12-24T07:56:29.153Z,1.07
2022-12-24T07:58:56.625Z,0.90
2022-12-24T08:01:24.203Z,1.00
2022-12-24T08:03:54.432Z,0.90
2022-12-24T08:06:23.515Z,1.00
2022-12-24T08:08:51.115Z,1.00
2022-12-24T08:11:18.579Z,1.00
2022-12-24T08:13:46.038Z,0.90
2022-12-24T08:16:13.651Z,0.90
2022-12-24T08:18:41.161Z,1.00
2022-12-24T08:21:08.736Z,1.13
2022-12-24T08:23:37.587Z,1.10
2022-12-24T08:26:07.343Z,1.10
2022-12-24T08:28:34.801Z,0.93
2022-12-24T08:31:02.300Z,1.00
2022-12-24T08:33:29.862Z,1.10
2022-12-24T08:35:57.456Z,1.10
2022-12-24T08:38:25.103Z,1.10
2022-12-24T08:40:55.215Z,1.00
2022-12-24T08:43:23.078Z,1.10
2022-12-24T08:45:51.465Z,1.07
2022-12-24T08:48:19.134Z,1.00
2022-12-24T08:50:46.716Z,1.00
2022-12-24T08:53:14.449Z,0.90
2022-12-24T08:55:42.354Z,0.90
2022-12-24T08:58:11.168Z,0.97
2022-12-24T09:00:39.090Z,0.97
2022-12-24T09:03:06.693Z,1.10
2022-12-24T09:05:34.210Z,1.00
2022-12-24T09:08:02.427Z,0.97
2022-12-24T09:10:29.928Z,0.90
2022-12-24T09:12:57.376Z,1.10
2022-12-24T09:15:26.175Z,1.03
2022-12-24T09:17:53.597Z,0.90
2022-12-24T09:20:21.028Z,0.80
2022-12-24T09:22:48.488Z,0.80
2022-12-24T09:25:15.947Z,0.90
2022-12-24T09:27:43.420Z,0.80
2022-12-24T09:30:11.474Z,0.80
2022-12-24T09:32:40.246Z,1.00
2022-12-24T09:35:07.949Z,0.80
2022-12-24T09:37:35.402Z,0.90
2022-12-24T09:40:02.837Z,0.83
2022-12-24T09:42:37.985Z,0.90
2022-12-24T09:45:09.065Z,0.70
2022-12-24T09:47:40.563Z,0.73
2022-12-24T09:50:18.257Z,0.70
2022-12-24T09:52:46.580Z,1.00
2022-12-24T09:55:21.699Z,0.80
2022-12-24T09:57:50.353Z,0.77
2022-12-24T10:00:20.189Z,0.70
2022-12-24T10:02:48.877Z,0.60
2022-12-24T10:05:18.650Z,0.70
2022-12-24T10:07:50.399Z,0.60
2022-12-24T10:10:22.129Z,0.60
2022-12-24T10:12:54.731Z,0.70
2022-12-24T10:15:26.481Z,0.80
2022-12-24T10:18:00.662Z,0.90
2022-12-24T10:20:35.768Z,0.70
2022-12-24T10:23:06.110Z,0.77
2022-12-24T10:25:37.632Z,0.70
2022-12-24T10:28:12.891Z,0.80
2022-12-24T10:30:40.603Z,0.63
2022-12-24T10:33:11.890Z,0.80
2022-12-24T10:35:43.983Z,0.60
2022-12-24T10:38:11.620Z,0.70
2022-12-24T10:40:41.198Z,0.70
2022-12-24T10:43:14.716Z,0.70
2022-12-24T10:45:44.993Z,0.70
2022-12-24T10:48:15.903Z,0.70
2022-12-24T10:50:52.056Z,0.60
2022-12-24T10:53:22.420Z,0.60
2022-12-24T10:55:50.165Z,0.60
2022-12-24T10:58:19.354Z,0.70
2022-12-24T11:00:50.690Z,0.70
2022-12-24T11:03:23.275Z,0.70
2022-12-24T11:06:01.526Z,0.90
2022-12-24T11:08:28.971Z,0.60
2022-12-24T11:10:57.379Z,0.60
2022-12-24T11:13:37.370Z,0.93
2022-12-24T11:16:07.593Z,0.80
2022-12-24T11:18:37.214Z,0.60
2022-12-24T11:21:06.822Z,0.60
2022-12-24T11:23:34.396Z,0.70
2022-12-24T11:26:02.201Z,0.60
2022-12-24T11:28:30.791Z,0.70
2022-12-24T11:31:00.025Z,0.50
2022-12-24T11:33:28.227Z,0.67
2022-12-24T11:35:58.498Z,0.60
2022-12-24T11:38:28.075Z,0.60
2022-12-24T11:41:00.479Z,0.80
2022-12-24T11:43:44.301Z,0.40
2022-12-24T11:46:22.862Z,0.70
2022-12-24T11:49:07.992Z,0.80
2022-12-24T11:51:36.414Z,0.83
2022-12-24T11:54:10.160Z,0.70
2022-12-24T11:56:39.956Z,0.77
2022-12-24T11:59:13.502Z,0.80
2022-12-24T12:01:44.887Z,0.97
2022-12-24T12:04:16.172Z,0.70
2022-12-24T12:06:46.266Z,0.70
2022-12-24T12:09:18.440Z,1.00
2022-12-24T12:11:48.017Z,0.80
2022-12-24T12:14:19.549Z,1.00
2022-12-24T12:17:05.070Z,0.80
2022-12-24T12:19:35.008Z,0.80
2022-12-24T12:22:05.076Z,0.80
2022-12-24T12:24:37.588Z,0.80
2022-12-24T12:27:09.783Z,0.70
2022-12-24T12:29:40.846Z,1.00
2022-12-24T12:32:12.033Z,1.00
2022-12-24T12:34:41.800Z,0.80
2022-12-24T12:37:14.935Z,1.00
2022-12-24T12:39:44.446Z,1.00
2022-12-24T12:42:14.301Z,0.90
2022-12-24T12:44:49.954Z,0.70
2022-12-24T12:47:25.718Z,0.90
2022-12-24T12:49:59.639Z,0.60
2022-12-24T12:52:36.025Z,0.93
2022-12-24T12:55:20.523Z,0.87
2022-12-24T12:57:52.789Z,0.80
2022-12-24T13:00:20.859Z,0.70
2022-12-24T13:03:07.099Z,1.00
2022-12-24T13:05:44.422Z,0.70
2022-12-24T13:08:24.064Z,0.80
2022-12-24T13:11:07.063Z,0.90
2022-12-24T13:13:58.607Z,1.17
2022-12-24T13:16:44.958Z,0.80
2022-12-24T13:19:24.654Z,0.80
2022-12-24T13:21:54.182Z,0.80
2022-12-24T13:24:22.477Z,0.80
2022-12-24T13:27:04.835Z,0.70
2022-12-24T13:29:40.593Z,0.83
2022-12-24T13:32:27.100Z,1.07
2022-12-24T13:34:56.469Z,0.80
2022-12-24T13:37:24.631Z,0.87
2022-12-24T13:40:10.626Z,1.20
2022-12-24T13:42:49.433Z,1.13
2022-12-24T13:45:35.579Z,1.00
2022-12-24T13:48:15.536Z,1.00
2022-12-24T13:50:44.944Z,0.90
2022-12-24T13:53:21.517Z,0.80
2022-12-24T13:55:51.319Z,0.80
2022-12-24T13:58:21.747Z,0.80
2022-12-24T14:00:54.847Z,0.90
2022-12-24T14:03:25.162Z,0.90
2022-12-24T14:05:54.299Z,1.17
2022-12-24T14:08:29.721Z,1.00
2022-12-24T14:11:05.026Z,1.00
2022-12-24T14:13:51.472Z,1.10
2022-12-24T14:16:20.868Z,1.00
2022-12-24T14:18:50.715Z,1.10
2022-12-24T14:21:21.623Z,1.20
2022-12-24T14:23:54.569Z,1.20
2022-12-24T14:26:23.357Z,1.40
2022-12-24T14:28:54.946Z,1.57
2022-12-24T14:31:23.818Z,1.40
2022-12-24T14:33:51.617Z,1.50
2022-12-24T14:36:20.762Z,1.50
2022-12-24T14:38:48.463Z,1.60
2022-12-24T14:41:20.252Z,1.83
2022-12-24T14:43:51.455Z,1.63
2022-12-24T14:46:23.722Z,1.50
2022-12-24T14:48:53.862Z,1.40
2022-12-24T14:51:23.914Z,1.33
2022-12-24T14:54:08.919Z,1.33
2022-12-24T14:56:36.400Z,1.30
2022-12-24T14:59:14.922Z,1.50
2022-12-24T15:01:42.450Z,1.90
2022-12-24T15:04:17.544Z,2.23
2022-12-24T15:06:47.829Z,2.27
2022-12-24T15:09:18.242Z,2.00
2022-12-24T15:11:46.276Z,1.97
2022-12-24T15:14:14.068Z,1.90
2022-12-24T15:16:41.628Z,2.00
2022-12-24T15:19:15.362Z,2.40
2022-12-24T15:21:44.357Z,2.47
2022-12-24T15:24:25.025Z,2.00
2022-12-24T15:26:52.540Z,1.63
2022-12-24T15:29:22.493Z,1.97
2022-12-24T15:31:53.557Z,1.70
2022-12-24T15:34:26.710Z,2.00
2022-12-24T15:37:01.582Z,1.97
2022-12-24T15:39:29.168Z,2.10
2022-12-24T15:42:15.046Z,1.87
2022-12-24T15:44:43.673Z,2.00
2022-12-24T15:47:16.257Z,2.97
2022-12-24T15:49:45.855Z,2.93
2022-12-24T15:52:16.328Z,3.00
2022-12-24T15:54:52.094Z,3.00
2022-12-24T15:57:24.649Z,3.07
2022-12-24T15:59:52.636Z,3.47
2022-12-24T16:02:38.127Z,3.90
2022-12-24T16:05:29.473Z,4.43
2022-12-24T16:08:08.778Z,4.30
2022-12-24T16:10:38.895Z,4.10
2022-12-24T16:13:12.466Z,3.87
2022-12-24T16:15:44.503Z,4.23
2022-12-24T16:18:16.442Z,4.50
2022-12-24T16:20:47.304Z,4.90
2022-12-24T16:23:19.173Z,5.57
2022-12-24T16:25:46.669Z,5.53
2022-12-24T16:28:21.787Z,6.70
2022-12-24T16:30:50.215Z,7.53
2022-12-24T16:33:19.249Z,6.90
2022-12-24T16:35:47.480Z,7.63
2022-12-24T16:38:15.135Z,7.53
2022-12-24T16:40:44.100Z,6.40
2022-12-24T16:43:29.291Z,5.53
2022-12-24T16:46:00.802Z,7.07
2022-12-24T16:48:28.327Z,6.00
2022-12-24T16:50:55.912Z,5.93
2022-12-24T16:53:23.924Z,5.53
2022-12-24T16:55:53.332Z,5.50
2022-12-24T16:58:21.182Z,5.10
2022-12-24T17:00:49.339Z,5.23
2022-12-24T17:03:16.960Z,6.33
2022-12-24T17:05:45.252Z,6.60
2022-12-24T17:08:12.859Z,7.00
2022-12-24T17:10:40.394Z,6.70
2022-12-24T17:13:09.181Z,5.73
2022-12-24T17:15:36.724Z,6.33
2022-12-24T17:18:04.210Z,6.27
2022-12-24T17:20:31.710Z,6.57
2022-12-24T17:22:59.175Z,6.70
2022-12-24T17:25:26.589Z,7.37
2022-12-24T17:27:54.050Z,6.87
2022-12-24T17:30:22.911Z,7.30
2022-12-24T17:32:50.456Z,7.57
2022-12-24T17:35:18.477Z,6.57
2022-12-24T17:37:45.890Z,6.93
2022-12-24T17:40:13.491Z,10.47
2022-12-24T17:42:40.946Z,12.63
2022-12-24T17:45:08.736Z,11.60
2022-12-24T17:47:37.509Z,11.90
2022-12-24T17:50:05.322Z,11.97
2022-12-24T17:52:34.627Z,10.57
2022-12-24T17:55:02.132Z,11.20
2022-12-24T17:57:29.573Z,12.93
2022-12-24T17:59:57.974Z,11.63
2022-12-24T18:02:25.592Z,8.40
2022-12-24T18:04:54.675Z,5.90
2022-12-24T18:07:22.139Z,5.20
2022-12-24T18:09:49.584Z,4.27
2022-12-24T18:12:17.138Z,4.93
2022-12-24T18:14:44.606Z,3.90
2022-12-24T18:17:12.054Z,3.00
2022-12-24T18:19:39.505Z,3.67
2022-12-24T18:22:08.308Z,3.60
2022-12-24T18:24:35.772Z,4.83
2022-12-24T18:27:03.542Z,5.30
2022-12-24T18:29:31.042Z,6.90
2022-12-24T18:31:58.608Z,5.37
2022-12-24T18:34:26.115Z,5.70
2022-12-24T18:36:55.614Z,4.53
2022-12-24T18:39:24.715Z,3.90
2022-12-24T18:41:52.172Z,3.87
2022-12-24T18:44:24.938Z,4.17
2022-12-24T18:46:53.291Z,3.70
2022-12-24T18:49:20.763Z,3.57
2022-12-24T18:51:48.169Z,4.30
2022-12-24T18:54:15.604Z,4.73
2022-12-24T18:56:44.386Z,4.37
2022-12-24T18:59:11.805Z,5.03
2022-12-24T19:01:39.390Z,4.80
2022-12-24T19:04:06.934Z,4.70
2022-12-24T19:06:34.428Z,4.57
2022-12-24T19:09:02.291Z,4.10
2022-12-24T19:11:30.773Z,3.80
2022-12-24T19:14:00.113Z,4.30
2022-12-24T19:16:28.545Z,4.57
2022-12-24T19:18:56.082Z,4.60
2022-12-24T19:21:23.754Z,5.43
2022-12-24T19:23:51.738Z,7.43
2022-12-24T19:26:20.081Z,5.50
2022-12-24T19:28:47.877Z,4.17
2022-12-24T19:31:17.682Z,3.53
2022-12-24T19:33:46.439Z,3.90
2022-12-24T19:36:14.873Z,3.63
2022-12-24T19:38:42.339Z,3.87
2022-12-24T19:41:10.725Z,5.53
2022-12-24T19:43:41.067Z,5.77
2022-12-24T19:46:09.511Z,7.23
2022-12-24T19:48:38.753Z,8.57
2022-12-24T19:51:07.219Z,7.53
2022-12-24T19:53:34.907Z,7.90
2022-12-24T19:56:02.310Z,8.97
2022-12-24T19:58:32.591Z,7.97
2022-12-24T20:01:11.034Z,7.93
2022-12-24T20:03:43.624Z,8.97
2022-12-24T20:06:11.107Z,8.90
2022-12-24T20:08:39.139Z,8.50
2022-12-24T20:11:07.428Z,9.00
2022-12-24T20:13:34.921Z,9.50
2022-12-24T20:16:04.985Z,8.70
2022-12-24T20:18:32.497Z,7.83
2022-12-24T20:21:01.986Z,7.53
2022-12-24T20:23:29.574Z,7.47
2022-12-24T20:25:57.624Z,6.60
2022-12-24T20:28:25.065Z,6.57
2022-12-24T20:30:52.611Z,6.23
2022-12-24T20:33:21.231Z,6.30
2022-12-24T20:35:49.029Z,5.97
2022-12-24T20:38:17.988Z,6.97
2022-12-24T20:40:46.296Z,6.17
2022-12-24T20:43:13.968Z,7.00
2022-12-24T20:45:41.533Z,8.10
2022-12-24T20:48:09.582Z,8.37
2022-12-24T20:50:40.945Z,8.53
2022-12-24T20:53:08.366Z,7.40
2022-12-24T20:55:37.396Z,6.90
2022-12-24T20:58:04.968Z,6.10
2022-12-24T21:00:32.448Z,6.53
2022-12-24T21:03:00.130Z,7.07
2022-12-24T21:05:28.053Z,6.57
2022-12-24T21:07:55.515Z,6.90
2022-12-24T21:10:22.945Z,6.10
2022-12-24T21:12:52.289Z,7.63
2022-12-24T21:15:20.946Z,7.03
2022-12-24T21:17:48.623Z,7.33
2022-12-24T21:20:16.347Z,7.33
2022-12-24T21:22:43.992Z,7.17
2022-12-24T21:25:11.966Z,7.50
2022-12-24T21:27:39.419Z,6.67
2022-12-24T21:30:09.373Z,6.50
2022-12-24T21:32:37.143Z,7.00
2022-12-24T21:35:05.111Z,7.93
2022-12-24T21:37:32.571Z,9.63
2022-12-24T21:40:00.119Z,8.93
2022-12-24T21:42:28.388Z,8.30
2022-12-24T21:44:55.839Z,8.57
2022-12-24T21:47:24.688Z,10.70
2022-12-24T21:50:09.741Z,10.13
2022-12-24T21:52:37.248Z,10.67
2022-12-24T21:55:04.767Z,9.07
2022-12-24T21:57:51.088Z,8.83
2022-12-24T22:00:26.830Z,9.20
2022-12-24T22:02:57.594Z,9.33
2022-12-24T22:05:27.241Z,8.23
2022-12-24T22:08:13.361Z,9.30
2022-12-24T22:11:12.935Z,9.30
2022-12-24T22:13:40.406Z,8.70
2022-12-24T22:16:08.073Z,8.90
2022-12-24T22:18:36.929Z,10.87
2022-12-24T22:21:04.489Z,8.80
2022-12-24T22:23:34.829Z,8.33
2022-12-24T22:26:10.812Z,8.60
2022-12-24T22:28:38.267Z,8.90
2022-12-24T22:31:05.737Z,9.07
2022-12-24T22:33:36.052Z,9.60
2022-12-24T22:36:06.209Z,8.17
2022-12-24T22:38:33.652Z,6.73
2022-12-24T22:41:01.525Z,7.90
2022-12-24T22:43:28.979Z,7.07
2022-12-24T22:45:56.427Z,6.20
2022-12-24T22:48:23.862Z,6.37
2022-12-24T22:50:51.268Z,5.97
2022-12-24T22:53:20.049Z,5.97
2022-12-24T22:55:55.062Z,6.00
2022-12-24T22:58:22.514Z,6.37
2022-12-24T23:00:50.946Z,6.00
2022-12-24T23:03:18.869Z,6.60
2022-12-24T23:05:46.422Z,6.70
2022-12-24T23:08:14.221Z,6.80
2022-12-24T23:10:43.047Z,6.70
2022-12-24T23:13:30.719Z,6.80
2022-12-24T23:16:01.685Z,7.00
2022-12-24T23:18:29.186Z,6.47
2022-12-24T23:20:56.651Z,6.70
2022-12-24T23:23:24.130Z,6.70
2022-12-24T23:25:52.926Z,6.43
2022-12-24T23:28:20.381Z,6.87
2022-12-24T23:30:57.350Z,6.90
2022-12-24T23:33:24.789Z,6.77
2022-12-24T23:35:52.221Z,6.43
2022-12-24T23:38:19.670Z,6.37
2022-12-24T23:40:47.156Z,6.53
2022-12-24T23:43:16.005Z,6.53
2022-12-24T23:45:47.085Z,6.60
2022-12-24T23:48:14.638Z,7.07
2022-12-24T23:50:42.277Z,6.67
2022-12-24T23:53:09.974Z,6.80
2022-12-24T23:55:37.580Z,7.40
2022-12-24T23:58:05.679Z,7.90
